^^
Station Historical Data
Daily Summary for April 17, 2018 Units:  English    Metric   Both
« Previous Day
Next Day »
Daily Weekly Monthly Yearly Custom
  High: Low: Average:
Temperature: 46.2 °F 27.9 °F 36.3 °F
Dew Point: 32.6 °F 23.0 °F 28.4 °F
Humidity: 84% 54% 74%
Wind Speed: 31.0mph 2.0mph 15.9mph
Wind Gust: 39.0mph - -
Wind- - East
Pressure: 30.03 in 29.85 in -
Precipitation: 0.00 in    
Historical Graphs
 
 
Tabular Data for April 17, 2018
Time Temperature Dew Point Pressure Wind Wind Speed Wind Gust Humidity Rainfall Rate (Hourly) solar Conditions
00:04 29.6 °F 23.0 °F 30.00 in East 19.0 mph 26.0 mph 76% 0.00 in 0 W/m2
00:09 29.5 °F 23.2 °F 30.00 in East 16.0 mph 26.0 mph 77% 0.00 in 0 W/m2
00:14 29.5 °F 23.2 °F 30.01 in East 22.0 mph 26.0 mph 77% 0.00 in 0 W/m2
00:19 29.5 °F 23.2 °F 30.00 in East 13.0 mph 24.0 mph 77% 0.00 in 0 W/m2
00:24 29.4 °F 23.4 °F 30.00 in ESE 14.0 mph 24.0 mph 78% 0.00 in 0 W/m2
00:29 29.4 °F 23.4 °F 30.00 in East 16.0 mph 24.0 mph 78% 0.00 in 0 W/m2
00:34 29.4 °F 23.4 °F 30.00 in East 13.0 mph 23.0 mph 78% 0.00 in 0 W/m2
00:39 29.3 °F 23.3 °F 30.00 in ENE 15.0 mph 27.0 mph 78% 0.00 in 0 W/m2
00:44 29.1 °F 23.1 °F 30.00 in East 21.0 mph 27.0 mph 78% 0.00 in 0 W/m2
00:49 29.1 °F 23.4 °F 30.00 in East 16.0 mph 26.0 mph 79% 0.00 in 0 W/m2
00:54 29.0 °F 23.3 °F 30.00 in East 15.0 mph 28.0 mph 79% 0.00 in 0 W/m2
00:59 28.9 °F 23.5 °F 30.00 in East 16.0 mph 28.0 mph 80% 0.00 in 0 W/m2
01:04 28.7 °F 23.6 °F 30.00 in ENE 17.0 mph 25.0 mph 81% 0.00 in 0 W/m2
01:08 28.8 °F 23.7 °F 30.00 in East 21.0 mph 26.0 mph 81% 0.00 in 0 W/m2
01:13 28.7 °F 23.6 °F 29.99 in ESE 21.0 mph 29.0 mph 81% 0.00 in 0 W/m2
01:18 28.7 °F 23.6 °F 29.99 in ESE 17.0 mph 31.0 mph 81% 0.00 in 0 W/m2
01:23 28.6 °F 23.8 °F 29.99 in East 18.0 mph 31.0 mph 82% 0.00 in 0 W/m2
01:28 28.5 °F 23.7 °F 29.99 in East 13.0 mph 27.0 mph 82% 0.00 in 0 W/m2
01:33 28.4 °F 23.6 °F 29.99 in East 23.0 mph 27.0 mph 82% 0.00 in 0 W/m2
01:38 28.2 °F 23.4 °F 29.99 in East 14.0 mph 26.0 mph 82% 0.00 in 0 W/m2
01:43 28.2 °F 23.4 °F 29.99 in ENE 14.0 mph 26.0 mph 82% 0.00 in 0 W/m2
01:48 28.0 °F 23.2 °F 29.98 in East 17.0 mph 26.0 mph 82% 0.00 in 0 W/m2
01:53 28.0 °F 23.2 °F 29.98 in East 13.0 mph 27.0 mph 82% 0.00 in 0 W/m2
01:58 27.9 °F 23.1 °F 29.99 in East 17.0 mph 27.0 mph 82% 0.00 in 0 W/m2
02:03 27.9 °F 23.1 °F 29.98 in ESE 20.0 mph 26.0 mph 82% 0.00 in 0 W/m2
02:08 27.9 °F 23.1 °F 29.98 in East 15.0 mph 26.0 mph 82% 0.00 in 0 W/m2
02:13 28.0 °F 23.5 °F 29.98 in East 22.0 mph 26.0 mph 83% 0.00 in 0 W/m2
02:18 28.2 °F 23.4 °F 29.98 in ESE 22.0 mph 26.0 mph 82% 0.00 in 0 W/m2
02:23 28.5 °F 23.7 °F 29.99 in ESE 15.0 mph 28.0 mph 82% 0.00 in 0 W/m2
02:28 28.6 °F 23.8 °F 29.99 in East 13.0 mph 28.0 mph 82% 0.00 in 0 W/m2
02:33 28.8 °F 24.0 °F 29.98 in East 18.0 mph 27.0 mph 82% 0.00 in 0 W/m2
02:38 28.9 °F 23.8 °F 29.98 in East 18.0 mph 27.0 mph 81% 0.00 in 0 W/m2
02:43 28.9 °F 23.8 °F 29.99 in East 24.0 mph 27.0 mph 81% 0.00 in 0 W/m2
02:48 28.9 °F 23.8 °F 29.98 in East 14.0 mph 26.0 mph 81% 0.00 in 0 W/m2
02:53 28.8 °F 24.0 °F 29.95 in East 23.0 mph 30.0 mph 82% 0.00 in 0 W/m2
02:58 28.9 °F 24.1 °F 29.96 in ESE 15.0 mph 30.0 mph 82% 0.00 in 0 W/m2
03:03 28.9 °F 24.1 °F 29.97 in ESE 17.0 mph 28.0 mph 82% 0.00 in 0 W/m2
03:08 29.0 °F 24.5 °F 29.98 in East 16.0 mph 26.0 mph 83% 0.00 in 0 W/m2
03:13 29.1 °F 24.6 °F 29.97 in ENE 11.0 mph 23.0 mph 83% 0.00 in 0 W/m2
03:18 29.3 °F 24.8 °F 29.97 in East 16.0 mph 23.0 mph 83% 0.00 in 0 W/m2
03:23 29.6 °F 25.1 °F 29.96 in ESE 27.0 mph 27.0 mph 83% 0.00 in 0 W/m2
03:28 29.7 °F 25.2 °F 29.96 in ESE 13.0 mph 30.0 mph 83% 0.00 in 0 W/m2
03:33 29.7 °F 25.2 °F 29.96 in SE 21.0 mph 30.0 mph 83% 0.00 in 0 W/m2
03:38 29.8 °F 25.3 °F 29.95 in ESE 15.0 mph 29.0 mph 83% 0.00 in 0 W/m2
03:43 29.7 °F 25.2 °F 29.95 in East 22.0 mph 29.0 mph 83% 0.00 in 0 W/m2
03:48 29.9 °F 25.7 °F 29.94 in ESE 22.0 mph 25.0 mph 84% 0.00 in 0 W/m2
03:53 30.0 °F 25.8 °F 29.94 in ESE 17.0 mph 27.0 mph 84% 0.00 in 0 W/m2
03:58 30.0 °F 25.8 °F 29.94 in ESE 22.0 mph 28.0 mph 84% 0.00 in 0 W/m2
04:03 30.0 °F 25.8 °F 29.94 in ESE 20.0 mph 28.0 mph 84% 0.00 in 0 W/m2
04:08 30.2 °F 25.9 °F 29.94 in ESE 19.0 mph 26.0 mph 84% 0.00 in 0 W/m2
04:13 30.3 °F 26.0 °F 29.94 in ESE 19.0 mph 26.0 mph 84% 0.00 in 0 W/m2
04:19 30.4 °F 26.1 °F 29.94 in ESE 15.0 mph 26.0 mph 84% 0.00 in 0 W/m2
04:24 30.5 °F 26.2 °F 29.95 in East 28.0 mph 28.0 mph 84% 0.00 in 0 W/m2
04:29 30.6 °F 26.1 °F 29.94 in ESE 17.0 mph 28.0 mph 83% 0.00 in 0 W/m2
04:34 30.6 °F 26.1 °F 29.93 in ESE 17.0 mph 29.0 mph 83% 0.00 in 0 W/m2
04:39 30.5 °F 26.0 °F 29.93 in East 20.0 mph 29.0 mph 83% 0.00 in 0 W/m2
04:44 30.5 °F 26.0 °F 29.92 in East 14.0 mph 28.0 mph 83% 0.00 in 0 W/m2
04:49 30.5 °F 26.0 °F 29.92 in ESE 16.0 mph 29.0 mph 83% 0.00 in 0 W/m2
04:54 30.5 °F 26.0 °F 29.92 in ESE 21.0 mph 29.0 mph 83% 0.00 in 0 W/m2
04:59 30.6 °F 26.1 °F 29.92 in East 15.0 mph 31.0 mph 83% 0.00 in 0 W/m2
05:04 30.6 °F 26.1 °F 29.92 in ESE 17.0 mph 31.0 mph 83% 0.00 in 0 W/m2
05:09 30.7 °F 26.1 °F 29.92 in ESE 17.0 mph 31.0 mph 83% 0.00 in 0 W/m2
05:14 30.7 °F 26.1 °F 29.92 in East 26.0 mph 26.0 mph 83% 0.00 in 0 W/m2
05:19 30.7 °F 26.1 °F 29.92 in ESE 18.0 mph 27.0 mph 83% 0.00 in 0 W/m2
05:24 30.7 °F 26.1 °F 29.92 in East 22.0 mph 27.0 mph 83% 0.00 in 0 W/m2
05:29 30.7 °F 26.1 °F 29.92 in East 22.0 mph 28.0 mph 83% 0.00 in 0 W/m2
05:34 30.7 °F 26.1 °F 29.92 in SE 13.0 mph 28.0 mph 83% 0.00 in 0 W/m2
05:39 30.7 °F 26.1 °F 29.91 in East 15.0 mph 26.0 mph 83% 0.00 in 0 W/m2
05:44 30.8 °F 26.2 °F 29.91 in ESE 17.0 mph 27.0 mph 83% 0.00 in 0 W/m2
05:49 30.7 °F 26.1 °F 29.90 in ESE 21.0 mph 27.0 mph 83% 0.00 in 0 W/m2
05:54 30.7 °F 26.4 °F 29.90 in SE 18.0 mph 27.0 mph 84% 0.00 in 0 W/m2
05:59 30.9 °F 26.6 °F 29.90 in ESE 20.0 mph 27.0 mph 84% 0.00 in 0 W/m2
06:04 31.0 °F 26.7 °F 29.90 in ESE 17.0 mph 27.0 mph 84% 0.00 in 0 W/m2
06:09 31.2 °F 26.9 °F 29.90 in ESE 16.0 mph 27.0 mph 84% 0.00 in 0 W/m2
06:14 31.2 °F 26.9 °F 29.90 in ESE 13.0 mph 25.0 mph 84% 0.00 in 0 W/m2
06:19 31.3 °F 27.0 °F 29.90 in ESE 23.0 mph 25.0 mph 84% 0.00 in 0 W/m2
06:24 31.5 °F 27.2 °F 29.89 in ESE 19.0 mph 25.0 mph 84% 0.00 in 0 W/m2
06:29 31.6 °F 27.0 °F 29.89 in ESE 19.0 mph 25.0 mph 83% 0.00 in 0 W/m2
06:34 31.5 °F 27.2 °F 29.89 in ESE 16.0 mph 25.0 mph 84% 0.00 in 0 W/m2
06:39 31.6 °F 27.3 °F 29.89 in SE 16.0 mph 25.0 mph 84% 0.00 in 0 W/m2
06:44 31.8 °F 27.2 °F 29.89 in ESE 17.0 mph 25.0 mph 83% 0.00 in 0 W/m2
06:49 31.8 °F 27.2 °F 29.89 in ESE 20.0 mph 24.0 mph 83% 0.00 in 0 W/m2
06:54 31.8 °F 27.2 °F 29.89 in ESE 20.0 mph 28.0 mph 83% 0.00 in 5 W/m2
06:59 31.8 °F 27.2 °F 29.89 in ESE 18.0 mph 28.0 mph 83% 0.00 in 9 W/m2
07:04 31.8 °F 27.2 °F 29.89 in ESE 13.0 mph 28.0 mph 83% 0.00 in 14 W/m2
07:09 31.7 °F 27.1 °F 29.89 in ESE 15.0 mph 27.0 mph 83% 0.00 in 19 W/m2
07:14 31.7 °F 27.4 °F 29.89 in ESE 24.0 mph 24.0 mph 84% 0.00 in 26 W/m2
07:19 31.8 °F 27.2 °F 29.90 in ESE 18.0 mph 26.0 mph 83% 0.00 in 35 W/m2
07:24 31.8 °F 27.2 °F 29.90 in ESE 13.0 mph 26.0 mph 83% 0.00 in 46 W/m2
07:29 31.9 °F 27.3 °F 29.90 in ESE 16.0 mph 22.0 mph 83% 0.00 in 54 W/m2
07:34 32.0 °F 27.4 °F 29.90 in East 14.0 mph 22.0 mph 83% 0.00 in 60 W/m2
07:39 32.2 °F 27.6 °F 29.91 in SE 11.0 mph 27.0 mph 83% 0.00 in 69 W/m2
07:44 32.3 °F 27.7 °F 29.91 in ESE 15.0 mph 27.0 mph 83% 0.00 in 72 W/m2
07:49 32.5 °F 27.6 °F 29.91 in SE 9.0 mph 23.0 mph 82% 0.00 in 67 W/m2
07:50 32.5 °F 27.6 °F 29.91 in ESE 15.0 mph 23.0 mph 82% 0.00 in 67 W/m2
07:55 32.6 °F 27.7 °F 29.91 in ESE 8.0 mph 23.0 mph 82% 0.00 in 72 W/m2
08:00 32.7 °F 27.8 °F 29.91 in ESE 23.0 mph 23.0 mph 82% 0.00 in 84 W/m2
08:05 32.9 °F 28.0 °F 29.91 in ESE 14.0 mph 23.0 mph 82% 0.00 in 95 W/m2
08:10 33.0 °F 27.8 °F 29.90 in ESE 14.0 mph 25.0 mph 81% 0.00 in 121 W/m2
08:15 33.3 °F 28.1 °F 29.90 in ESE 18.0 mph 29.0 mph 81% 0.00 in 139 W/m2
08:20 33.5 °F 28.0 °F 29.90 in ESE 11.0 mph 29.0 mph 80% 0.00 in 172 W/m2
08:25 33.6 °F 28.1 °F 29.90 in ESE 17.0 mph 27.0 mph 80% 0.00 in 209 W/m2
08:30 33.8 °F 28.0 °F 29.90 in East 23.0 mph 27.0 mph 79% 0.00 in 199 W/m2
08:35 34.1 °F 28.3 °F 29.90 in East 19.0 mph 27.0 mph 79% 0.00 in 193 W/m2
08:40 34.2 °F 28.1 °F 29.89 in ESE 17.0 mph 28.0 mph 78% 0.00 in 220 W/m2
08:45 34.3 °F 27.8 °F 29.90 in ESE 22.0 mph 30.0 mph 77% 0.00 in 193 W/m2
08:50 34.3 °F 27.8 °F 29.90 in ESE 25.0 mph 30.0 mph 77% 0.00 in 178 W/m2
08:55 34.4 °F 27.9 °F 29.90 in ESE 19.0 mph 27.0 mph 77% 0.00 in 237 W/m2
09:00 34.7 °F 27.9 °F 29.90 in ESE 20.0 mph 27.0 mph 76% 0.00 in 211 W/m2
09:05 34.9 °F 28.1 °F 29.90 in ESE 15.0 mph 27.0 mph 76% 0.00 in 195 W/m2
09:10 35.1 °F 28.3 °F 29.90 in ESE 18.0 mph 31.0 mph 76% 0.00 in 336 W/m2
09:15 35.5 °F 28.4 °F 29.89 in East 17.0 mph 31.0 mph 75% 0.00 in 244 W/m2
09:20 35.2 °F 27.7 °F 29.89 in East 17.0 mph 26.0 mph 74% 0.00 in 241 W/m2
09:25 35.2 °F 28.1 °F 29.90 in East 17.0 mph 26.0 mph 75% 0.00 in 434 W/m2
09:30 36.3 °F 28.5 °F 29.90 in SE 15.0 mph 30.0 mph 73% 0.00 in 496 W/m2
09:35 36.9 °F 28.7 °F 29.90 in ESE 19.0 mph 30.0 mph 72% 0.00 in 494 W/m2
09:40 37.1 °F 28.6 °F 29.89 in ESE 18.0 mph 30.0 mph 71% 0.00 in 424 W/m2
09:45 37.5 °F 28.9 °F 29.89 in ESE 18.0 mph 27.0 mph 71% 0.00 in 429 W/m2
09:50 37.9 °F 28.6 °F 29.88 in ESE 22.0 mph 29.0 mph 69% 0.00 in 510 W/m2
09:55 38.4 °F 28.8 °F 29.88 in East 24.0 mph 29.0 mph 68% 0.00 in 399 W/m2
10:00 38.1 °F 27.7 °F 29.88 in East 18.0 mph 31.0 mph 66% 0.00 in 388 W/m2
10:06 38.2 °F 28.2 °F 29.89 in SE 20.0 mph 32.0 mph 67% 0.00 in 522 W/m2
10:11 39.2 °F 28.8 °F 29.88 in ESE 26.0 mph 32.0 mph 66% 0.00 in 568 W/m2
10:16 39.3 °F 28.5 °F 29.88 in SE 23.0 mph 30.0 mph 65% 0.00 in 568 W/m2
10:21 39.7 °F 27.7 °F 29.88 in ESE 17.0 mph 32.0 mph 62% 0.00 in 577 W/m2
10:26 39.7 °F 28.1 °F 29.87 in SE 20.0 mph 32.0 mph 63% 0.00 in 571 W/m2
10:31 39.8 °F 28.2 °F 29.87 in ESE 28.0 mph 32.0 mph 63% 0.00 in 552 W/m2
10:36 39.8 °F 27.4 °F 29.86 in ESE 28.0 mph 38.0 mph 61% 0.00 in 512 W/m2
10:41 39.8 °F 27.0 °F 29.87 in SE 26.0 mph 38.0 mph 60% 0.00 in 466 W/m2
10:46 39.9 °F 27.5 °F 29.87 in ESE 23.0 mph 34.0 mph 61% 0.00 in 464 W/m2
10:51 40.1 °F 28.1 °F 29.87 in SE 16.0 mph 34.0 mph 62% 0.00 in 504 W/m2
10:56 40.4 °F 28.0 °F 29.87 in ESE 19.0 mph 34.0 mph 61% 0.00 in 522 W/m2
11:01 40.7 °F 28.7 °F 29.87 in ESE 17.0 mph 32.0 mph 62% 0.00 in 529 W/m2
11:06 40.9 °F 28.5 °F 29.87 in ESE 28.0 mph 32.0 mph 61% 0.00 in 527 W/m2
11:11 41.1 °F 29.1 °F 29.87 in SE 21.0 mph 32.0 mph 62% 0.00 in 548 W/m2
11:16 41.4 °F 28.5 °F 29.87 in ESE 25.0 mph 32.0 mph 60% 0.00 in 580 W/m2
11:21 41.6 °F 28.7 °F 29.87 in SE 22.0 mph 39.0 mph 60% 0.00 in 582 W/m2
11:26 41.7 °F 28.4 °F 29.87 in ESE 18.0 mph 39.0 mph 59% 0.00 in 659 W/m2
11:31 42.2 °F 28.9 °F 29.87 in ESE 28.0 mph 32.0 mph 59% 0.00 in 707 W/m2
11:36 42.0 °F 28.7 °F 29.86 in ESE 27.0 mph 35.0 mph 59% 0.00 in 726 W/m2
11:41 42.3 °F 29.0 °F 29.86 in ESE 23.0 mph 35.0 mph 59% 0.00 in 737 W/m2
11:46 42.5 °F 29.6 °F 29.86 in ESE 31.0 mph 32.0 mph 60% 0.00 in 744 W/m2
11:51 42.6 °F 29.7 °F 29.87 in East 24.0 mph 32.0 mph 60% 0.00 in 754 W/m2
11:56 42.8 °F 29.5 °F 29.87 in East 21.0 mph 32.0 mph 59% 0.00 in 735 W/m2
12:01 43.2 °F 30.2 °F 29.87 in ESE 16.0 mph 32.0 mph 60% 0.00 in 768 W/m2
12:06 43.4 °F 29.6 °F 29.87 in ESE 17.0 mph 32.0 mph 58% 0.00 in 772 W/m2
12:11 43.4 °F 30.0 °F 29.86 in ESE 23.0 mph 32.0 mph 59% 0.00 in 780 W/m2
12:16 43.9 °F 30.1 °F 29.86 in ESE 25.0 mph 31.0 mph 58% 0.00 in 793 W/m2
12:21 44.2 °F 29.9 °F 29.86 in ESE 27.0 mph 31.0 mph 57% 0.00 in 800 W/m2
12:26 44.0 °F 29.3 °F 29.86 in ESE 24.0 mph 30.0 mph 56% 0.00 in 805 W/m2
12:31 44.0 °F 29.3 °F 29.86 in ESE 25.0 mph 30.0 mph 56% 0.00 in 821 W/m2
12:36 44.9 °F 30.6 °F 29.85 in ESE 15.0 mph 31.0 mph 57% 0.00 in 751 W/m2
12:41 44.7 °F 30.0 °F 29.85 in East 19.0 mph 31.0 mph 56% 0.00 in 497 W/m2
12:46 44.5 °F 30.2 °F 29.85 in ESE 25.0 mph 30.0 mph 57% 0.00 in 849 W/m2
12:51 44.8 °F 30.5 °F 29.85 in SE 15.0 mph 30.0 mph 57% 0.00 in 858 W/m2
12:56 45.4 °F 31.0 °F 29.86 in ESE 16.0 mph 31.0 mph 57% 0.00 in 856 W/m2
13:01 45.2 °F 30.9 °F 29.86 in SE 21.0 mph 31.0 mph 57% 0.00 in 856 W/m2
13:06 45.2 °F 31.3 °F 29.86 in East 14.0 mph 30.0 mph 58% 0.00 in 905 W/m2
13:11 45.1 °F 30.8 °F 29.86 in East 20.0 mph 30.0 mph 57% 0.00 in 443 W/m2
13:16 45.8 °F 32.3 °F 29.86 in ESE 16.0 mph 30.0 mph 59% 0.00 in 1002 W/m2
13:21 45.2 °F 30.9 °F 29.86 in SE 18.0 mph 28.0 mph 57% 0.00 in 527 W/m2
13:26 44.7 °F 30.8 °F 29.87 in East 17.0 mph 30.0 mph 58% 0.00 in 976 W/m2
13:31 45.5 °F 32.0 °F 29.87 in ESE 21.0 mph 30.0 mph 59% 0.00 in 930 W/m2
13:36 45.7 °F 30.9 °F 29.87 in SE 18.0 mph 29.0 mph 56% 0.00 in 844 W/m2
13:41 45.4 °F 30.2 °F 29.87 in ESE 23.0 mph 30.0 mph 55% 0.00 in 833 W/m2
13:46 46.2 °F 30.9 °F 29.87 in East 25.0 mph 30.0 mph 55% 0.00 in 812 W/m2
13:51 46.2 °F 30.5 °F 29.86 in East 16.0 mph 30.0 mph 54% 0.00 in 791 W/m2
13:56 46.2 °F 30.9 °F 29.86 in East 16.0 mph 29.0 mph 55% 0.00 in 726 W/m2
14:01 45.7 °F 30.0 °F 29.87 in ESE 19.0 mph 27.0 mph 54% 0.00 in 608 W/m2
14:06 45.6 °F 30.3 °F 29.86 in ESE 23.0 mph 31.0 mph 55% 0.00 in 731 W/m2
14:11 46.2 °F 30.9 °F 29.87 in ESE 16.0 mph 31.0 mph 55% 0.00 in 786 W/m2
14:16 46.1 °F 30.4 °F 29.87 in East 24.0 mph 31.0 mph 54% 0.00 in 494 W/m2
14:21 45.6 °F 30.3 °F 29.87 in East 18.0 mph 31.0 mph 55% 0.00 in 448 W/m2
14:26 45.0 °F 29.8 °F 29.87 in East 26.0 mph 30.0 mph 55% 0.00 in 450 W/m2
14:31 45.3 °F 30.5 °F 29.87 in ESE 18.0 mph 30.0 mph 56% 0.00 in 524 W/m2
14:36 45.4 °F 30.6 °F 29.87 in ENE 11.0 mph 27.0 mph 56% 0.00 in 633 W/m2
14:41 45.7 °F 30.4 °F 29.87 in East 13.0 mph 28.0 mph 55% 0.00 in 584 W/m2
14:46 46.0 °F 31.2 °F 29.86 in East 17.0 mph 28.0 mph 56% 0.00 in 492 W/m2
14:51 45.8 °F 30.5 °F 29.87 in East 16.0 mph 29.0 mph 55% 0.00 in 288 W/m2
14:56 45.1 °F 29.9 °F 29.86 in East 26.0 mph 29.0 mph 55% 0.00 in 292 W/m2
15:01 45.0 °F 30.2 °F 29.86 in ESE 16.0 mph 29.0 mph 56% 0.00 in 476 W/m2
15:06 44.9 °F 30.6 °F 29.87 in East 26.0 mph 31.0 mph 57% 0.00 in 288 W/m2
15:11 44.5 °F 29.8 °F 29.87 in ESE 15.0 mph 31.0 mph 56% 0.00 in 253 W/m2
15:16 44.5 °F 30.6 °F 29.87 in ESE 16.0 mph 26.0 mph 58% 0.00 in 241 W/m2
15:21 44.2 °F 30.3 °F 29.88 in ESE 13.0 mph 25.0 mph 58% 0.00 in 183 W/m2
15:26 43.9 °F 30.5 °F 29.89 in East 15.0 mph 25.0 mph 59% 0.00 in 169 W/m2
15:31 43.7 °F 30.3 °F 29.89 in East 15.0 mph 27.0 mph 59% 0.00 in 107 W/m2
15:36 43.3 °F 30.3 °F 29.89 in East 15.0 mph 27.0 mph 60% 0.00 in 81 W/m2
15:41 43.1 °F 30.6 °F 29.89 in East 15.0 mph 22.0 mph 61% 0.00 in 76 W/m2
15:46 42.8 °F 30.3 °F 29.89 in ESE 15.0 mph 23.0 mph 61% 0.00 in 109 W/m2
15:51 42.6 °F 30.5 °F 29.89 in ESE 11.0 mph 24.0 mph 62% 0.00 in 134 W/m2
15:56 42.6 °F 30.9 °F 29.90 in ESE 10.0 mph 24.0 mph 63% 0.00 in 132 W/m2
16:01 42.6 °F 31.3 °F 29.90 in East 14.0 mph 21.0 mph 64% 0.00 in 125 W/m2
16:06 42.4 °F 31.1 °F 29.90 in NE 12.0 mph 20.0 mph 64% 0.00 in 151 W/m2
16:11 42.3 °F 31.4 °F 29.90 in East 14.0 mph 20.0 mph 65% 0.00 in 158 W/m2
16:16 42.3 °F 31.4 °F 29.91 in East 11.0 mph 18.0 mph 65% 0.00 in 223 W/m2
16:21 42.4 °F 31.8 °F 29.90 in ENE 16.0 mph 24.0 mph 66% 0.00 in 278 W/m2
16:26 42.5 °F 31.6 °F 29.91 in East 16.0 mph 24.0 mph 65% 0.00 in 262 W/m2
16:31 42.5 °F 31.9 °F 29.91 in East 15.0 mph 24.0 mph 66% 0.00 in 343 W/m2
16:36 42.8 °F 32.2 °F 29.91 in East 11.0 mph 24.0 mph 66% 0.00 in 362 W/m2
16:41 42.8 °F 32.6 °F 29.91 in East 17.0 mph 23.0 mph 67% 0.00 in 255 W/m2
16:46 42.7 °F 31.7 °F 29.92 in East 18.0 mph 23.0 mph 65% 0.00 in 218 W/m2
16:51 42.3 °F 31.7 °F 29.91 in East 17.0 mph 23.0 mph 66% 0.00 in 244 W/m2
16:56 42.0 °F 31.5 °F 29.91 in East 17.0 mph 23.0 mph 66% 0.00 in 192 W/m2
17:01 41.7 °F 31.5 °F 29.91 in ESE 8.0 mph 23.0 mph 67% 0.00 in 169 W/m2
17:06 41.5 °F 31.4 °F 29.91 in East 15.0 mph 21.0 mph 67% 0.00 in 155 W/m2
17:11 41.1 °F 31.7 °F 29.91 in East 13.0 mph 21.0 mph 69% 0.00 in 135 W/m2
17:16 40.6 °F 30.9 °F 29.91 in ENE 16.0 mph 23.0 mph 68% 0.00 in 127 W/m2
17:21 40.4 °F 30.7 °F 29.92 in ENE 13.0 mph 23.0 mph 68% 0.00 in 123 W/m2
17:26 40.3 °F 30.6 °F 29.91 in East 20.0 mph 23.0 mph 68% 0.00 in 113 W/m2
17:31 40.1 °F 30.7 °F 29.92 in East 19.0 mph 24.0 mph 69% 0.00 in 125 W/m2
17:36 40.2 °F 31.2 °F 29.92 in ENE 16.0 mph 24.0 mph 70% 0.00 in 114 W/m2
17:41 40.1 °F 31.4 °F 29.92 in ESE 8.0 mph 23.0 mph 71% 0.00 in 100 W/m2
17:46 39.9 °F 30.9 °F 29.92 in East 14.0 mph 21.0 mph 70% 0.00 in 111 W/m2
17:51 39.8 °F 31.2 °F 29.92 in East 10.0 mph 22.0 mph 71% 0.00 in 91 W/m2
17:56 39.6 °F 31.7 °F 29.92 in ENE 18.0 mph 24.0 mph 73% 0.00 in 88 W/m2
18:01 39.0 °F 31.1 °F 29.92 in East 15.0 mph 24.0 mph 73% 0.00 in 72 W/m2
18:06 38.6 °F 31.0 °F 29.93 in East 14.0 mph 22.0 mph 74% 0.00 in 60 W/m2
18:11 38.2 °F 30.6 °F 29.93 in East 22.0 mph 24.0 mph 74% 0.00 in 54 W/m2
18:16 38.0 °F 30.8 °F 29.93 in ENE 16.0 mph 24.0 mph 75% 0.00 in 60 W/m2
18:21 37.8 °F 30.6 °F 29.94 in East 14.0 mph 22.0 mph 75% 0.00 in 49 W/m2
18:26 37.7 °F 30.5 °F 29.93 in ENE 16.0 mph 22.0 mph 75% 0.00 in 47 W/m2
18:31 37.6 °F 30.4 °F 29.94 in ENE 13.0 mph 22.0 mph 75% 0.00 in 51 W/m2
18:36 37.5 °F 30.3 °F 29.93 in ENE 21.0 mph 21.0 mph 75% 0.00 in 53 W/m2
18:41 37.4 °F 30.2 °F 29.93 in ENE 13.0 mph 22.0 mph 75% 0.00 in 49 W/m2
18:46 37.4 °F 30.5 °F 29.93 in East 14.0 mph 23.0 mph 76% 0.00 in 49 W/m2
18:51 37.4 °F 30.5 °F 29.93 in ENE 13.0 mph 23.0 mph 76% 0.00 in 47 W/m2
18:56 37.4 °F 30.5 °F 29.93 in ENE 12.0 mph 19.0 mph 76% 0.00 in 49 W/m2
19:01 37.3 °F 30.7 °F 29.94 in East 15.0 mph 18.0 mph 77% 0.00 in 39 W/m2
19:06 37.2 °F 30.7 °F 29.93 in East 15.0 mph 18.0 mph 77% 0.00 in 33 W/m2
19:11 37.2 °F 30.7 °F 29.94 in ENE 11.0 mph 18.0 mph 77% 0.00 in 30 W/m2
19:16 37.1 °F 30.6 °F 29.94 in ENE 11.0 mph 21.0 mph 77% 0.00 in 30 W/m2
19:21 37.0 °F 30.5 °F 29.94 in East 10.0 mph 21.0 mph 77% 0.00 in 32 W/m2
19:26 37.0 °F 30.5 °F 29.94 in ENE 10.0 mph 21.0 mph 77% 0.00 in 28 W/m2
19:31 36.8 °F 30.3 °F 29.94 in ENE 12.0 mph 18.0 mph 77% 0.00 in 23 W/m2
19:36 36.7 °F 30.2 °F 29.94 in ENE 19.0 mph 19.0 mph 77% 0.00 in 16 W/m2
19:41 36.6 °F 30.1 °F 29.94 in East 9.0 mph 19.0 mph 77% 0.00 in 12 W/m2
19:46 36.4 °F 30.2 °F 29.95 in ENE 10.0 mph 21.0 mph 78% 0.00 in 11 W/m2
19:51 36.3 °F 30.1 °F 29.95 in ENE 11.0 mph 21.0 mph 78% 0.00 in 11 W/m2
19:56 36.2 °F 30.3 °F 29.95 in East 10.0 mph 19.0 mph 79% 0.00 in 11 W/m2
20:01 36.1 °F 30.2 °F 29.95 in East 13.0 mph 19.0 mph 79% 0.00 in 9 W/m2
20:06 36.1 °F 30.2 °F 29.95 in East 9.0 mph 17.0 mph 79% 0.00 in 7 W/m2
20:11 36.0 °F 30.1 °F 29.96 in East 10.0 mph 17.0 mph 79% 0.00 in 5 W/m2
20:16 36.0 °F 30.4 °F 29.96 in East 13.0 mph 16.0 mph 80% 0.00 in 0 W/m2
20:21 36.0 °F 30.4 °F 29.96 in ENE 9.0 mph 16.0 mph 80% 0.00 in 0 W/m2
20:26 36.0 °F 30.4 °F 29.97 in East 8.0 mph 16.0 mph 80% 0.00 in 0 W/m2
20:31 35.9 °F 30.3 °F 29.96 in East 10.0 mph 15.0 mph 80% 0.00 in 0 W/m2
20:36 35.9 °F 30.3 °F 29.97 in East 10.0 mph 16.0 mph 80% 0.00 in 0 W/m2
20:41 35.9 °F 30.3 °F 29.97 in East 8.0 mph 16.0 mph 80% 0.00 in 0 W/m2
20:46 35.9 °F 30.3 °F 29.97 in East 6.0 mph 15.0 mph 80% 0.00 in 0 W/m2
20:51 35.9 °F 30.3 °F 29.97 in East 9.0 mph 15.0 mph 80% 0.00 in 0 W/m2
20:56 35.9 °F 30.3 °F 29.98 in ENE 9.0 mph 13.0 mph 80% 0.00 in 0 W/m2
21:01 35.9 °F 30.3 °F 29.98 in ENE 9.0 mph 13.0 mph 80% 0.00 in 0 W/m2
21:06 36.0 °F 30.4 °F 29.98 in East 6.0 mph 13.0 mph 80% 0.00 in 0 W/m2
21:11 36.0 °F 30.1 °F 29.99 in East 6.0 mph 10.0 mph 79% 0.00 in 0 W/m2
21:16 35.9 °F 30.3 °F 29.99 in ENE 11.0 mph 11.0 mph 80% 0.00 in 0 W/m2
21:21 35.9 °F 30.3 °F 29.99 in East 6.0 mph 11.0 mph 80% 0.00 in 0 W/m2
21:26 35.9 °F 30.3 °F 29.99 in East 7.0 mph 10.0 mph 80% 0.00 in 0 W/m2
21:31 35.9 °F 30.3 °F 29.99 in East 8.0 mph 10.0 mph 80% 0.00 in 0 W/m2
21:36 35.9 °F 30.3 °F 29.99 in ENE 9.0 mph 13.0 mph 80% 0.00 in 0 W/m2
21:41 36.0 °F 30.1 °F 29.98 in ENE 5.0 mph 13.0 mph 79% 0.00 in 0 W/m2
21:46 36.0 °F 30.1 °F 29.99 in East 6.0 mph 13.0 mph 79% 0.00 in 0 W/m2
21:51 36.0 °F 30.1 °F 30.00 in East 8.0 mph 13.0 mph 79% 0.00 in 0 W/m2
21:56 35.9 °F 30.3 °F 29.99 in ESE 7.0 mph 11.0 mph 80% 0.00 in 0 W/m2
22:01 35.9 °F 30.3 °F 29.99 in ENE 7.0 mph 9.0 mph 80% 0.00 in 0 W/m2
22:06 35.8 °F 29.9 °F 30.00 in East 2.0 mph 11.0 mph 79% 0.00 in 0 W/m2
22:11 35.8 °F 29.9 °F 30.00 in ENE 5.0 mph 11.0 mph 79% 0.00 in 0 W/m2
22:16 35.8 °F 30.2 °F 30.01 in ESE 4.0 mph 8.0 mph 80% 0.00 in 0 W/m2
22:21 35.7 °F 30.1 °F 30.01 in ESE 4.0 mph 8.0 mph 80% 0.00 in 0 W/m2
22:26 35.6 °F 30.0 °F 30.01 in East 3.0 mph 7.0 mph 80% 0.00 in 0 W/m2
22:31 35.6 °F 30.0 °F 30.01 in East 2.0 mph 7.0 mph 80% 0.00 in 0 W/m2
22:36 35.5 °F 29.9 °F 30.01 in NE 6.0 mph 9.0 mph 80% 0.00 in 0 W/m2
22:41 35.5 °F 29.9 °F 30.01 in ENE 7.0 mph 9.0 mph 80% 0.00 in 0 W/m2
22:46 35.4 °F 29.8 °F 30.00 in East 7.0 mph 10.0 mph 80% 0.00 in 0 W/m2
22:51 35.3 °F 29.7 °F 30.01 in East 7.0 mph 10.0 mph 80% 0.00 in 0 W/m2
22:56 35.1 °F 29.6 °F 30.01 in ENE 9.0 mph 9.0 mph 80% 0.00 in 0 W/m2
23:01 35.0 °F 29.5 °F 30.01 in East 8.0 mph 10.0 mph 80% 0.00 in 0 W/m2
23:06 34.8 °F 29.6 °F 30.01 in East 6.0 mph 10.0 mph 81% 0.00 in 0 W/m2
23:11 34.7 °F 29.5 °F 30.01 in East 5.0 mph 11.0 mph 81% 0.00 in 0 W/m2
23:16 34.6 °F 29.4 °F 30.02 in East 9.0 mph 11.0 mph 81% 0.00 in 0 W/m2
23:21 34.5 °F 29.3 °F 30.02 in East 10.0 mph 10.0 mph 81% 0.00 in 0 W/m2
23:26 34.5 °F 29.3 °F 30.02 in East 11.0 mph 13.0 mph 81% 0.00 in 0 W/m2
23:31 34.4 °F 29.2 °F 30.03 in East 9.0 mph 13.0 mph 81% 0.00 in 0 W/m2
23:36 34.2 °F 29.0 °F 30.03 in ESE 8.0 mph 10.0 mph 81% 0.00 in 0 W/m2
23:41 34.1 °F 28.9 °F 30.02 in East 8.0 mph 10.0 mph 81% 0.00 in 0 W/m2
23:46 33.9 °F 28.7 °F 30.02 in ESE 5.0 mph 9.0 mph 81% 0.00 in 0 W/m2
23:51 33.8 °F 28.6 °F 30.02 in ESE 8.0 mph 9.0 mph 81% 0.00 in 0 W/m2
23:56 33.7 °F 28.5 °F 30.02 in ESE 8.0 mph 9.0 mph 81% 0.00 in 0 W/m2
23:58 33.6 °F 28.4 °F 30.02 in ESE 7.0 mph 9.0 mph 81% 0.00 in 0 W/m2
Bismarck, North Dakota, USA
Compliments of Weather Underground - 4 mb